createdAt,value
2022-10-17T00:00:05.475Z,13.92
2022-10-17T00:01:27.097Z,13.92
2022-10-17T00:02:28.764Z,13.92
2022-10-17T00:03:30.492Z,13.93
2022-10-17T00:04:32.170Z,13.93
2022-10-17T00:05:34.134Z,13.94
2022-10-17T00:06:35.896Z,13.95
2022-10-17T00:07:38.447Z,13.95
2022-10-17T00:08:42.752Z,13.95
2022-10-17T00:09:44.539Z,13.95
2022-10-17T00:10:56.576Z,13.96
2022-10-17T00:11:58.276Z,13.96
2022-10-17T00:13:00.000Z,13.96
2022-10-17T00:14:01.876Z,13.97
2022-10-17T00:15:05.999Z,13.98
2022-10-17T00:16:08.361Z,13.97
2022-10-17T00:17:10.223Z,13.98
2022-10-17T00:18:11.906Z,13.98
2022-10-17T00:19:13.541Z,13.98
2022-10-17T00:20:16.471Z,13.98
2022-10-17T00:21:19.747Z,13.97
2022-10-17T00:22:21.685Z,13.97
2022-10-17T00:23:24.085Z,13.97
2022-10-17T00:24:25.805Z,13.98
2022-10-17T00:25:27.639Z,14.00
2022-10-17T00:26:29.795Z,14.01
2022-10-17T00:27:36.049Z,14.02
2022-10-17T00:28:37.785Z,14.03
2022-10-17T00:29:39.514Z,14.03
2022-10-17T00:30:41.952Z,14.04
2022-10-17T00:31:43.719Z,14.05
2022-10-17T00:32:45.489Z,14.07
2022-10-17T00:33:47.996Z,14.08
2022-10-17T00:34:50.364Z,14.09
2022-10-17T00:36:07.120Z,14.09
2022-10-17T00:37:10.795Z,14.09
2022-10-17T00:38:12.550Z,14.08
2022-10-17T00:39:14.264Z,14.08
2022-10-17T00:40:16.000Z,14.08
2022-10-17T00:41:20.346Z,14.08
2022-10-17T00:42:22.256Z,14.09
2022-10-17T00:43:24.020Z,14.09
2022-10-17T00:44:31.632Z,14.08
2022-10-17T00:45:33.288Z,14.07
2022-10-17T00:46:39.471Z,14.07
2022-10-17T00:47:51.589Z,14.05
2022-10-17T00:48:56.182Z,14.04
2022-10-17T00:49:59.447Z,14.02
2022-10-17T00:51:02.487Z,14.00
2022-10-17T00:52:22.187Z,13.99
2022-10-17T00:53:23.936Z,13.97
2022-10-17T00:54:32.921Z,13.94
2022-10-17T00:55:42.430Z,13.92
2022-10-17T00:56:48.035Z,13.89
2022-10-17T00:57:51.328Z,13.87
2022-10-17T00:58:54.523Z,13.85
2022-10-17T00:59:59.527Z,13.83
2022-10-17T01:01:03.365Z,13.81
2022-10-17T01:02:11.915Z,13.79
2022-10-17T01:03:14.073Z,13.78
2022-10-17T01:04:18.224Z,13.76
2022-10-17T01:05:21.002Z,13.74
2022-10-17T01:06:22.700Z,13.73
2022-10-17T01:07:24.675Z,13.71
2022-10-17T01:08:26.870Z,13.70
2022-10-17T01:09:29.084Z,13.68
2022-10-17T01:10:46.068Z,13.65
2022-10-17T01:12:02.501Z,13.63
2022-10-17T01:13:23.579Z,13.62
2022-10-17T01:14:37.284Z,13.59
2022-10-17T01:16:04.645Z,13.58
2022-10-17T01:17:13.474Z,13.58
2022-10-17T01:18:37.222Z,13.57
2022-10-17T01:19:59.517Z,13.56
2022-10-17T01:21:29.049Z,13.55
2022-10-17T01:22:45.532Z,13.53
2022-10-17T01:24:15.996Z,13.52
2022-10-17T01:25:38.115Z,13.50
2022-10-17T01:27:07.510Z,13.47
2022-10-17T01:28:37.235Z,13.44
2022-10-17T01:30:09.800Z,13.41
2022-10-17T01:31:17.353Z,13.38
2022-10-17T01:32:31.364Z,13.37
2022-10-17T01:33:54.324Z,13.34
2022-10-17T01:35:05.831Z,13.32
2022-10-17T01:36:35.549Z,13.31
2022-10-17T01:37:48.646Z,13.30
2022-10-17T01:39:09.711Z,13.30
2022-10-17T01:40:42.845Z,13.28
2022-10-17T01:41:58.579Z,13.28
2022-10-17T01:43:20.991Z,13.26
2022-10-17T01:44:47.609Z,13.23
2022-10-17T01:46:13.115Z,13.20
2022-10-17T01:47:22.656Z,13.18
2022-10-17T01:48:33.024Z,13.16
2022-10-17T01:49:39.478Z,13.14
2022-10-17T01:51:00.007Z,13.13
2022-10-17T01:52:11.087Z,13.12
2022-10-17T01:53:20.282Z,13.11
2022-10-17T01:54:36.221Z,13.11
2022-10-17T01:55:43.050Z,13.12
2022-10-17T01:56:49.849Z,13.12
2022-10-17T01:58:03.327Z,13.13
2022-10-17T01:59:13.681Z,13.12
2022-10-17T02:00:21.303Z,13.11
2022-10-17T02:01:30.083Z,13.10
2022-10-17T02:02:37.371Z,13.08
2022-10-17T02:03:43.950Z,13.06
2022-10-17T02:04:51.488Z,13.06
2022-10-17T02:05:53.342Z,13.03
2022-10-17T02:06:55.743Z,13.02
2022-10-17T02:07:57.692Z,13.02
2022-10-17T02:08:59.497Z,13.02
2022-10-17T02:10:02.795Z,13.03
2022-10-17T02:11:14.392Z,13.03
2022-10-17T02:12:27.984Z,13.04
2022-10-17T02:13:54.299Z,13.04
2022-10-17T02:15:17.752Z,13.03
2022-10-17T02:16:38.771Z,13.05
2022-10-17T02:17:54.954Z,13.04
2022-10-17T02:19:13.784Z,13.03
2022-10-17T02:20:41.256Z,13.00
2022-10-17T02:22:11.433Z,12.99
2022-10-17T02:23:42.213Z,12.96
2022-10-17T02:25:01.983Z,12.94
2022-10-17T02:26:19.546Z,12.92
2022-10-17T02:27:47.986Z,12.90
2022-10-17T02:29:09.995Z,12.89
2022-10-17T02:30:19.113Z,12.87
2022-10-17T02:31:29.549Z,12.86
2022-10-17T02:32:50.453Z,12.85
2022-10-17T02:34:08.037Z,12.83
2022-10-17T02:35:15.475Z,12.82
2022-10-17T02:36:26.436Z,12.80
2022-10-17T02:37:31.696Z,12.79
2022-10-17T02:38:35.798Z,12.78
2022-10-17T02:39:41.096Z,12.77
2022-10-17T02:40:46.458Z,12.77
2022-10-17T02:41:52.590Z,12.75
2022-10-17T02:42:55.726Z,12.74
2022-10-17T02:44:00.210Z,12.73
2022-10-17T02:45:06.685Z,12.73
2022-10-17T02:46:09.524Z,12.72
2022-10-17T02:47:17.822Z,12.72
2022-10-17T02:48:35.654Z,12.72
2022-10-17T02:49:43.866Z,12.72
2022-10-17T02:51:14.944Z,12.72
2022-10-17T02:52:33.081Z,12.72
2022-10-17T02:53:45.390Z,12.71
2022-10-17T02:54:56.098Z,12.71
2022-10-17T02:56:08.907Z,12.71
2022-10-17T02:57:31.320Z,12.71
2022-10-17T02:58:36.373Z,12.72
2022-10-17T02:59:41.875Z,12.74
2022-10-17T03:00:44.269Z,12.73
2022-10-17T03:01:46.648Z,12.75
2022-10-17T03:02:51.557Z,12.75
2022-10-17T03:04:05.524Z,12.75
2022-10-17T03:05:08.405Z,12.76
2022-10-17T03:06:10.473Z,12.77
2022-10-17T03:07:12.615Z,12.78
2022-10-17T03:08:14.337Z,12.80
2022-10-17T03:09:16.602Z,12.80
2022-10-17T03:10:19.655Z,12.79
2022-10-17T03:11:22.314Z,12.80
2022-10-17T03:12:25.215Z,12.79
2022-10-17T03:13:27.536Z,12.79
2022-10-17T03:14:29.338Z,12.80
2022-10-17T03:15:31.060Z,12.80
2022-10-17T03:16:34.113Z,12.79
2022-10-17T03:17:36.923Z,12.78
2022-10-17T03:18:38.633Z,12.77
2022-10-17T03:19:40.469Z,12.77
2022-10-17T03:20:42.216Z,12.77
2022-10-17T03:21:43.903Z,12.77
2022-10-17T03:22:46.647Z,12.76
2022-10-17T03:23:48.348Z,12.76
2022-10-17T03:24:50.453Z,12.76
2022-10-17T03:25:52.224Z,12.77
2022-10-17T03:26:54.062Z,12.77
2022-10-17T03:27:59.645Z,12.78
2022-10-17T03:29:01.619Z,12.77
2022-10-17T03:30:04.219Z,12.76
2022-10-17T03:31:09.231Z,12.76
2022-10-17T03:32:11.399Z,12.74
2022-10-17T03:33:13.165Z,12.73
2022-10-17T03:34:17.669Z,12.72
2022-10-17T03:35:19.932Z,12.72
2022-10-17T03:36:23.251Z,12.71
2022-10-17T03:37:25.071Z,12.70
2022-10-17T03:38:26.725Z,12.71
2022-10-17T03:39:28.467Z,12.68
2022-10-17T03:40:30.148Z,12.69
2022-10-17T03:41:31.774Z,12.68
2022-10-17T03:42:33.481Z,12.66
2022-10-17T03:43:36.806Z,12.66
2022-10-17T03:44:38.511Z,12.65
2022-10-17T03:45:40.252Z,12.65
2022-10-17T03:46:42.156Z,12.63
2022-10-17T03:47:43.893Z,12.62
2022-10-17T03:48:45.529Z,12.60
2022-10-17T03:49:47.212Z,12.60
2022-10-17T03:50:49.712Z,12.59
2022-10-17T03:51:51.667Z,12.58
2022-10-17T03:52:56.264Z,12.58
2022-10-17T03:53:58.029Z,12.58
2022-10-17T03:54:59.724Z,12.58
2022-10-17T03:56:10.599Z,12.57
2022-10-17T03:57:12.279Z,12.55
2022-10-17T03:58:14.471Z,12.55
2022-10-17T03:59:16.650Z,12.55
2022-10-17T04:00:23.588Z,12.54
2022-10-17T04:01:28.741Z,12.53
2022-10-17T04:02:30.532Z,12.52
2022-10-17T04:03:32.653Z,12.51
2022-10-17T04:04:34.320Z,12.50
2022-10-17T04:05:36.381Z,12.48
2022-10-17T04:06:38.591Z,12.46
2022-10-17T04:07:40.248Z,12.44
2022-10-17T04:08:42.813Z,12.42
2022-10-17T04:09:50.725Z,12.39
2022-10-17T04:11:01.186Z,12.38
2022-10-17T04:12:03.105Z,12.38
2022-10-17T04:13:06.441Z,12.37
2022-10-17T04:14:10.444Z,12.36
2022-10-17T04:15:12.977Z,12.36
2022-10-17T04:16:17.165Z,12.35
2022-10-17T04:17:40.260Z,12.34
2022-10-17T04:18:43.845Z,12.33
2022-10-17T04:19:45.664Z,12.32
2022-10-17T04:20:49.046Z,12.31
2022-10-17T04:21:50.936Z,12.32
2022-10-17T04:22:54.026Z,12.31
2022-10-17T04:23:58.280Z,12.30
2022-10-17T04:25:17.173Z,12.28
2022-10-17T04:26:22.358Z,12.27
2022-10-17T04:27:24.047Z,12.26
2022-10-17T04:28:27.415Z,12.26
2022-10-17T04:29:29.212Z,12.26
2022-10-17T04:30:42.328Z,12.26
2022-10-17T04:31:47.514Z,12.26
2022-10-17T04:32:55.513Z,12.26
2022-10-17T04:33:57.370Z,12.25
2022-10-17T04:34:59.612Z,12.24
2022-10-17T04:36:04.301Z,12.23
2022-10-17T04:37:06.310Z,12.23
2022-10-17T04:38:08.230Z,12.22
2022-10-17T04:39:10.246Z,12.21
2022-10-17T04:40:13.228Z,12.21
2022-10-17T04:41:18.097Z,12.20
2022-10-17T04:42:19.807Z,12.20
2022-10-17T04:43:21.764Z,12.19
2022-10-17T04:44:24.401Z,12.20
2022-10-17T04:45:27.162Z,12.20
2022-10-17T04:46:34.158Z,12.21
2022-10-17T04:47:36.042Z,12.22
2022-10-17T04:48:39.586Z,12.24
2022-10-17T04:51:00.491Z,12.24
2022-10-17T04:52:16.105Z,12.22
2022-10-17T04:53:19.594Z,12.22
2022-10-17T04:54:21.387Z,12.22
2022-10-17T04:55:27.268Z,12.21
2022-10-17T04:56:29.028Z,12.21
2022-10-17T04:57:30.728Z,12.20
2022-10-17T04:58:40.790Z,12.20
2022-10-17T04:59:42.913Z,12.20
2022-10-17T05:00:53.407Z,12.20
2022-10-17T05:01:57.976Z,12.21
2022-10-17T05:02:59.857Z,12.22
2022-10-17T05:04:01.954Z,12.22
2022-10-17T05:05:04.480Z,12.22
2022-10-17T05:06:09.294Z,12.22
2022-10-17T05:07:11.883Z,12.20
2022-10-17T05:08:35.217Z,12.18
2022-10-17T05:09:37.189Z,12.17
2022-10-17T05:10:41.795Z,12.14
2022-10-17T05:11:43.899Z,12.11
2022-10-17T05:12:47.624Z,12.09
2022-10-17T05:13:55.757Z,12.07
2022-10-17T05:14:57.494Z,12.06
2022-10-17T05:16:01.761Z,12.05
2022-10-17T05:17:03.479Z,12.03
2022-10-17T05:18:06.279Z,12.02
2022-10-17T05:19:07.975Z,12.01
2022-10-17T05:20:14.390Z,12.00
2022-10-17T05:21:16.212Z,11.99
2022-10-17T05:22:17.913Z,11.98
2022-10-17T05:23:19.792Z,11.97
2022-10-17T05:24:21.779Z,11.96
2022-10-17T05:25:24.367Z,11.95
2022-10-17T05:26:26.843Z,11.95
2022-10-17T05:27:29.119Z,11.95
2022-10-17T05:28:30.850Z,11.96
2022-10-17T05:29:34.601Z,11.97
2022-10-17T05:30:44.785Z,11.99
2022-10-17T05:31:46.537Z,12.00
2022-10-17T05:32:48.418Z,12.01
2022-10-17T05:33:50.139Z,12.04
2022-10-17T05:34:52.902Z,12.06
2022-10-17T05:35:54.969Z,12.08
2022-10-17T05:36:57.672Z,12.08
2022-10-17T05:38:00.583Z,12.10
2022-10-17T05:39:03.096Z,12.11
2022-10-17T05:40:05.549Z,12.13
2022-10-17T05:41:07.287Z,12.14
2022-10-17T05:42:09.061Z,12.15
2022-10-17T05:43:10.934Z,12.16
2022-10-17T05:44:13.482Z,12.16
2022-10-17T05:45:17.486Z,12.17
2022-10-17T05:46:19.217Z,12.18
2022-10-17T05:47:20.972Z,12.19
2022-10-17T05:48:24.086Z,12.19
2022-10-17T05:49:33.242Z,12.21
2022-10-17T05:50:46.283Z,12.22
2022-10-17T05:51:50.579Z,12.23
2022-10-17T05:52:54.363Z,12.24
2022-10-17T05:53:56.992Z,12.26
2022-10-17T05:55:00.930Z,12.28
2022-10-17T05:56:06.107Z,12.30
2022-10-17T05:57:07.940Z,12.30
2022-10-17T05:58:17.717Z,12.31
2022-10-17T05:59:26.591Z,12.33
2022-10-17T06:00:32.845Z,12.35
2022-10-17T06:01:34.656Z,12.38
2022-10-17T06:02:37.188Z,12.42
2022-10-17T06:03:40.854Z,12.44
2022-10-17T06:04:45.915Z,12.46
2022-10-17T06:05:48.476Z,12.48
2022-10-17T06:06:50.469Z,12.51
2022-10-17T06:07:55.985Z,12.52
2022-10-17T06:09:00.005Z,12.53
2022-10-17T06:10:06.735Z,12.55
2022-10-17T06:11:10.228Z,12.58
2022-10-17T06:12:12.543Z,12.60
2022-10-17T06:13:14.265Z,12.63
2022-10-17T06:14:16.164Z,12.64
2022-10-17T06:15:18.367Z,12.68
2022-10-17T06:16:24.590Z,12.70
2022-10-17T06:17:26.340Z,12.71
2022-10-17T06:18:28.094Z,12.72
2022-10-17T06:19:30.095Z,12.74
2022-10-17T06:20:31.821Z,12.76
2022-10-17T06:21:36.508Z,12.79
2022-10-17T06:22:43.871Z,12.84
2022-10-17T06:23:50.942Z,12.88
2022-10-17T06:24:59.981Z,12.93
2022-10-17T06:26:05.190Z,12.97
2022-10-17T06:27:11.029Z,13.02
2022-10-17T06:28:14.556Z,13.05
2022-10-17T06:29:16.406Z,13.07
2022-10-17T06:30:21.908Z,13.07
2022-10-17T06:31:24.080Z,13.08
2022-10-17T06:32:25.808Z,13.08
2022-10-17T06:33:27.551Z,13.10
2022-10-17T06:34:29.434Z,13.11
2022-10-17T06:35:31.511Z,13.13
2022-10-17T06:36:33.238Z,13.13
2022-10-17T06:37:37.125Z,13.14
2022-10-17T06:38:42.918Z,13.18
2022-10-17T06:39:52.730Z,13.22
2022-10-17T06:41:07.855Z,13.27
2022-10-17T06:42:09.536Z,13.33
2022-10-17T06:43:20.687Z,13.37
2022-10-17T06:44:52.881Z,13.42
2022-10-17T06:47:14.302Z,13.48
2022-10-17T06:48:18.728Z,13.51
2022-10-17T06:49:38.857Z,13.56
2022-10-17T06:50:53.006Z,13.60
2022-10-17T06:52:00.555Z,13.63
2022-10-17T06:53:14.627Z,13.67
2022-10-17T06:54:57.392Z,13.75
2022-10-17T06:56:09.406Z,13.81
2022-10-17T06:57:14.412Z,13.85
2022-10-17T06:58:32.144Z,13.89
2022-10-17T06:59:42.808Z,13.92
2022-10-17T07:00:47.851Z,13.95
2022-10-17T07:01:49.603Z,13.98
2022-10-17T07:02:51.433Z,14.01
2022-10-17T07:03:53.426Z,14.03
2022-10-17T07:04:56.572Z,14.04
2022-10-17T07:05:58.785Z,14.04
2022-10-17T07:07:03.071Z,14.07
2022-10-17T07:08:05.953Z,14.08
2022-10-17T07:09:08.195Z,14.11
2022-10-17T07:10:12.168Z,14.14
2022-10-17T07:11:18.219Z,14.16
2022-10-17T07:12:19.952Z,14.19
2022-10-17T07:13:22.778Z,14.24
2022-10-17T07:14:31.995Z,14.27
2022-10-17T07:15:36.807Z,14.31
2022-10-17T07:16:38.549Z,14.36
2022-10-17T07:17:52.879Z,14.39
2022-10-17T07:18:54.873Z,14.39
2022-10-17T07:19:56.760Z,14.39
2022-10-17T07:20:58.715Z,14.41
2022-10-17T07:22:00.548Z,14.43
2022-10-17T07:23:02.475Z,14.44
2022-10-17T07:24:05.859Z,14.42
2022-10-17T07:25:08.889Z,14.42
2022-10-17T07:26:20.792Z,14.42
2022-10-17T07:27:22.779Z,14.43
2022-10-17T07:28:24.496Z,14.44
2022-10-17T07:29:27.619Z,14.47
2022-10-17T07:30:35.780Z,14.50
2022-10-17T07:31:45.563Z,14.56
2022-10-17T07:32:47.485Z,14.61
2022-10-17T07:33:49.958Z,14.67
2022-10-17T07:34:51.719Z,14.73
2022-10-17T07:35:53.461Z,14.77
2022-10-17T07:36:55.104Z,14.80
2022-10-17T07:37:56.800Z,14.84
2022-10-17T07:38:58.460Z,14.89
2022-10-17T07:40:00.952Z,14.93
2022-10-17T07:41:04.893Z,14.96
2022-10-17T07:42:07.859Z,14.98
2022-10-17T07:43:09.923Z,14.97
2022-10-17T07:44:12.068Z,14.96
2022-10-17T07:45:20.291Z,14.97
2022-10-17T07:46:22.633Z,14.99
2022-10-17T07:47:24.813Z,15.02
2022-10-17T07:48:27.399Z,15.04
2022-10-17T07:49:30.199Z,15.09
2022-10-17T07:50:33.123Z,15.14
2022-10-17T07:51:34.841Z,15.19
2022-10-17T07:52:36.762Z,15.23
2022-10-17T07:53:41.707Z,15.27
2022-10-17T07:54:44.776Z,15.28
2022-10-17T07:55:47.852Z,15.30
2022-10-17T07:56:50.745Z,15.34
2022-10-17T07:57:52.893Z,15.37
2022-10-17T07:58:54.607Z,15.40
2022-10-17T07:59:56.659Z,15.40
2022-10-17T08:01:09.503Z,15.42
2022-10-17T08:02:22.994Z,15.44
2022-10-17T08:03:24.634Z,15.47
2022-10-17T08:04:27.054Z,15.50
2022-10-17T08:05:29.418Z,15.52
2022-10-17T08:06:31.124Z,15.53
2022-10-17T08:07:32.852Z,15.53
2022-10-17T08:08:34.551Z,15.54
2022-10-17T08:09:36.174Z,15.54
2022-10-17T08:10:37.795Z,15.57
2022-10-17T08:11:39.600Z,15.62
2022-10-17T08:12:41.878Z,15.68
2022-10-17T08:13:45.084Z,15.73
2022-10-17T08:14:48.208Z,15.77
2022-10-17T08:15:49.905Z,15.80
2022-10-17T08:16:54.596Z,15.83
2022-10-17T08:17:56.423Z,15.86
2022-10-17T08:18:58.176Z,15.88
2022-10-17T08:19:59.843Z,15.90
2022-10-17T08:21:06.186Z,15.93
2022-10-17T08:22:08.883Z,15.98
2022-10-17T08:23:11.222Z,16.02
2022-10-17T08:24:12.935Z,16.06
2022-10-17T08:25:14.707Z,16.11
2022-10-17T08:26:17.599Z,16.17
2022-10-17T08:27:24.128Z,16.23
2022-10-17T08:28:25.783Z,16.31
2022-10-17T08:29:28.774Z,16.37
2022-10-17T08:30:30.795Z,16.44
2022-10-17T08:31:32.458Z,16.50
2022-10-17T08:32:34.100Z,16.56
2022-10-17T08:33:35.772Z,16.62
2022-10-17T08:34:37.458Z,16.70
2022-10-17T08:35:39.076Z,16.75
2022-10-17T08:36:40.944Z,16.79
2022-10-17T08:37:42.719Z,16.82
2022-10-17T08:38:47.975Z,16.84
2022-10-17T08:39:53.411Z,16.86
2022-10-17T08:41:00.372Z,16.89
2022-10-17T08:42:30.981Z,16.93
2022-10-17T08:44:08.429Z,17.01
2022-10-17T08:45:35.295Z,17.09
2022-10-17T08:46:43.934Z,17.16
2022-10-17T08:47:49.685Z,17.22
2022-10-17T08:48:52.544Z,17.26
2022-10-17T08:50:02.177Z,17.32
2022-10-17T08:51:33.318Z,17.40
2022-10-17T08:52:54.057Z,17.50
2022-10-17T08:54:14.579Z,17.56
2022-10-17T08:55:42.816Z,17.57
2022-10-17T08:56:51.614Z,17.60
2022-10-17T08:57:53.318Z,17.63
2022-10-17T08:58:55.096Z,17.67
2022-10-17T08:59:57.149Z,17.73
2022-10-17T09:01:20.522Z,17.81
2022-10-17T09:02:54.377Z,17.89
2022-10-17T09:04:07.659Z,17.97
2022-10-17T09:05:44.236Z,18.00
2022-10-17T09:06:48.727Z,18.08
2022-10-17T09:08:02.864Z,18.15
2022-10-17T09:09:26.077Z,18.22
2022-10-17T09:10:39.869Z,18.29
2022-10-17T09:12:02.707Z,18.36
2022-10-17T09:13:40.155Z,18.41
2022-10-17T09:15:00.173Z,18.45
2022-10-17T09:16:37.279Z,18.48
2022-10-17T09:17:41.903Z,18.53
2022-10-17T09:18:51.380Z,18.56
2022-10-17T09:20:06.122Z,18.58
2022-10-17T09:21:44.795Z,18.61
2022-10-17T09:24:15.881Z,18.74
2022-10-17T09:25:21.039Z,18.82
2022-10-17T09:26:24.744Z,18.86
2022-10-17T09:27:38.627Z,18.89
2022-10-17T09:28:42.498Z,18.93
2022-10-17T09:29:50.427Z,18.97
2022-10-17T09:31:03.448Z,19.02
2022-10-17T09:32:17.452Z,19.10
2022-10-17T09:33:42.545Z,19.16
2022-10-17T09:34:54.885Z,19.24
2022-10-17T09:35:59.303Z,19.29
2022-10-17T09:37:03.197Z,19.35
2022-10-17T09:38:05.404Z,19.42
2022-10-17T09:39:15.245Z,19.49
2022-10-17T09:40:25.085Z,19.57
2022-10-17T09:41:46.389Z,19.64
2022-10-17T09:42:51.453Z,19.69
2022-10-17T09:43:58.240Z,19.76
2022-10-17T09:45:19.413Z,19.83
2022-10-17T09:46:31.659Z,19.89
2022-10-17T09:49:11.192Z,19.96
2022-10-17T09:50:27.990Z,19.98
2022-10-17T09:51:31.700Z,20.01
2022-10-17T09:52:54.201Z,19.99
2022-10-17T09:54:36.493Z,19.96
2022-10-17T09:55:49.436Z,19.93
2022-10-17T09:56:58.998Z,19.97
2022-10-17T09:58:04.112Z,20.00
2022-10-17T09:59:08.372Z,20.04
2022-10-17T10:00:25.651Z,20.08
2022-10-17T10:01:31.568Z,20.17
2022-10-17T10:02:36.429Z,20.25
2022-10-17T10:03:38.068Z,20.33
2022-10-17T10:05:05.658Z,20.40
2022-10-17T10:06:20.258Z,20.49
2022-10-17T10:07:28.280Z,20.54
2022-10-17T10:08:37.121Z,20.58
2022-10-17T10:09:40.212Z,20.61
2022-10-17T10:10:43.787Z,20.64
2022-10-17T10:11:51.883Z,20.67
2022-10-17T10:13:25.720Z,20.72
2022-10-17T10:14:34.321Z,20.74
2022-10-17T10:15:41.014Z,20.71
2022-10-17T10:16:47.008Z,20.71
2022-10-17T10:17:48.908Z,20.73
2022-10-17T10:18:51.798Z,20.77
2022-10-17T10:19:54.348Z,20.81
2022-10-17T10:21:17.167Z,20.84
2022-10-17T10:22:21.941Z,20.89
2022-10-17T10:23:24.302Z,20.93
2022-10-17T10:24:30.902Z,20.99
2022-10-17T10:25:35.059Z,21.08
2022-10-17T10:26:48.797Z,21.19
2022-10-17T10:27:50.468Z,21.32
2022-10-17T10:29:06.139Z,21.37
2022-10-17T10:30:19.405Z,21.41
2022-10-17T10:31:29.304Z,21.48
2022-10-17T10:32:36.862Z,21.52
2022-10-17T10:33:46.941Z,21.56
2022-10-17T10:35:00.394Z,21.62
2022-10-17T10:36:06.373Z,21.67
2022-10-17T10:37:25.461Z,21.70
2022-10-17T10:38:28.569Z,21.74
2022-10-17T10:39:36.189Z,21.78
2022-10-17T10:40:55.603Z,21.83
2022-10-17T10:41:57.794Z,21.92
2022-10-17T10:43:05.366Z,22.02
2022-10-17T10:44:17.105Z,22.12
2022-10-17T10:45:43.219Z,22.17
2022-10-17T10:46:45.520Z,22.23
2022-10-17T10:47:53.435Z,22.28
2022-10-17T10:48:59.703Z,22.29
2022-10-17T10:50:26.061Z,22.29
2022-10-17T10:51:35.715Z,22.33
2022-10-17T10:52:46.198Z,22.39
2022-10-17T10:53:53.697Z,22.46
2022-10-17T10:55:14.465Z,22.50
2022-10-17T10:56:34.181Z,22.58
2022-10-17T10:57:38.500Z,22.66
2022-10-17T10:58:52.792Z,22.72
2022-10-17T11:00:12.468Z,22.76
2022-10-17T11:01:25.442Z,22.78
2022-10-17T11:02:52.922Z,22.81
2022-10-17T11:04:32.111Z,22.87
2022-10-17T11:05:45.574Z,23.02
2022-10-17T11:06:52.658Z,23.15
2022-10-17T11:08:13.995Z,23.28
2022-10-17T11:09:41.213Z,23.44
2022-10-17T11:11:18.157Z,23.52
2022-10-17T11:12:36.269Z,23.60
2022-10-17T11:13:47.790Z,23.64
2022-10-17T11:15:17.057Z,23.70
2022-10-17T11:16:31.193Z,23.78
2022-10-17T11:17:45.834Z,23.78
2022-10-17T11:19:09.273Z,23.78
2022-10-17T11:20:44.922Z,23.85
2022-10-17T11:22:01.429Z,24.04
2022-10-17T11:23:19.909Z,24.24
2022-10-17T11:24:27.986Z,24.44
2022-10-17T11:25:37.210Z,24.62
2022-10-17T11:26:46.757Z,24.70
2022-10-17T11:27:48.858Z,24.71
2022-10-17T11:28:50.603Z,24.73
2022-10-17T11:29:52.385Z,24.73
2022-10-17T11:30:56.735Z,24.78
2022-10-17T11:32:08.213Z,24.84
2022-10-17T11:33:20.365Z,24.87
2022-10-17T11:34:35.469Z,24.92
2022-10-17T11:35:43.992Z,25.02
2022-10-17T11:36:52.746Z,25.10
2022-10-17T11:38:03.457Z,25.13
2022-10-17T11:39:27.657Z,25.16
2022-10-17T11:40:39.122Z,25.19
2022-10-17T11:41:55.228Z,25.22
2022-10-17T11:43:01.765Z,25.22
2022-10-17T11:44:35.878Z,25.28
2022-10-17T11:45:46.468Z,25.35
2022-10-17T11:46:56.346Z,25.37
2022-10-17T11:48:10.546Z,25.42
2022-10-17T11:49:24.192Z,25.49
2022-10-17T11:52:43.976Z,25.51
2022-10-17T11:53:55.023Z,25.61
2022-10-17T11:55:03.821Z,25.69
2022-10-17T11:56:06.540Z,25.73
2022-10-17T11:57:27.180Z,25.74
2022-10-17T11:58:39.726Z,25.77
2022-10-17T12:00:21.840Z,25.88
2022-10-17T12:01:49.762Z,26.06
2022-10-17T12:03:19.006Z,26.20
2022-10-17T12:04:54.840Z,26.34
2022-10-17T12:06:18.219Z,26.56
2022-10-17T12:07:59.965Z,26.76
2022-10-17T12:09:10.268Z,26.86
2022-10-17T12:10:27.143Z,26.82
2022-10-17T12:11:54.143Z,26.81
2022-10-17T12:12:55.974Z,26.74
2022-10-17T12:13:57.804Z,26.69
2022-10-17T12:15:23.301Z,26.66
2022-10-17T12:16:24.956Z,26.59
2022-10-17T12:17:35.692Z,26.59
2022-10-17T12:18:37.857Z,26.61
2022-10-17T12:19:39.607Z,26.65
2022-10-17T12:20:41.358Z,26.69
2022-10-17T12:22:04.874Z,26.68
2022-10-17T12:23:24.790Z,26.58
2022-10-17T12:24:44.997Z,26.52
2022-10-17T12:26:01.571Z,26.49
2022-10-17T12:27:30.131Z,26.49
2022-10-17T12:28:37.790Z,26.48
2022-10-17T12:29:39.501Z,26.53
2022-10-17T12:31:09.825Z,26.62
2022-10-17T12:32:13.018Z,26.72
2022-10-17T12:33:40.597Z,26.82
2022-10-17T12:34:53.982Z,26.98
2022-10-17T12:36:17.167Z,27.09
2022-10-17T12:37:55.161Z,27.19
2022-10-17T12:39:01.607Z,27.26
2022-10-17T12:40:03.968Z,27.26
2022-10-17T12:41:06.509Z,27.30
2022-10-17T12:42:29.839Z,27.37
2022-10-17T12:43:31.713Z,27.50
2022-10-17T12:44:34.983Z,27.58
2022-10-17T12:45:54.108Z,27.62
2022-10-17T12:47:11.167Z,27.60
2022-10-17T12:48:14.139Z,27.51
2022-10-17T12:49:40.348Z,27.39
2022-10-17T12:52:35.042Z,27.36
2022-10-17T12:54:15.731Z,27.43
2022-10-17T12:55:19.814Z,27.40
2022-10-17T12:56:50.561Z,27.36
2022-10-17T12:58:00.007Z,27.28
2022-10-17T12:59:22.352Z,27.23
2022-10-17T13:00:30.952Z,27.16
2022-10-17T13:01:37.586Z,27.01
2022-10-17T13:02:41.263Z,26.76
2022-10-17T13:03:47.666Z,26.53
2022-10-17T13:04:53.636Z,26.33
2022-10-17T13:06:02.950Z,26.23
2022-10-17T13:07:04.650Z,26.12
2022-10-17T13:08:14.808Z,25.96
2022-10-17T13:09:36.941Z,25.73
2022-10-17T13:10:43.037Z,25.53
2022-10-17T13:11:45.724Z,25.38
2022-10-17T13:12:50.688Z,25.21
2022-10-17T13:13:59.096Z,24.97
2022-10-17T13:15:07.362Z,24.71
2022-10-17T13:16:09.728Z,24.51
2022-10-17T13:17:27.378Z,24.35
2022-10-17T13:18:30.471Z,24.20
2022-10-17T13:19:43.120Z,24.12
2022-10-17T13:21:00.550Z,24.06
2022-10-17T13:22:07.045Z,24.08
2022-10-17T13:23:23.071Z,24.11
2022-10-17T13:24:30.529Z,24.12
2022-10-17T13:25:33.255Z,24.14
2022-10-17T13:26:37.222Z,24.17
2022-10-17T13:27:38.818Z,24.17
2022-10-17T13:28:41.593Z,24.16
2022-10-17T13:29:45.001Z,24.15
2022-10-17T13:30:49.456Z,24.15
2022-10-17T13:31:58.897Z,24.17
2022-10-17T13:33:02.330Z,24.22
2022-10-17T13:34:14.999Z,24.24
2022-10-17T13:35:41.961Z,24.23
2022-10-17T13:36:54.376Z,24.17
2022-10-17T13:37:57.441Z,24.20
2022-10-17T13:39:07.638Z,24.30
2022-10-17T13:41:47.199Z,24.34
2022-10-17T13:42:51.649Z,24.33
2022-10-17T13:43:55.217Z,24.38
2022-10-17T13:44:59.143Z,24.38
2022-10-17T13:46:25.499Z,24.41
2022-10-17T13:47:33.894Z,24.48
2022-10-17T13:48:38.276Z,24.51
2022-10-17T13:49:42.919Z,24.52
2022-10-17T13:50:50.163Z,24.48
2022-10-17T13:51:54.392Z,24.38
2022-10-17T13:53:33.651Z,24.27
2022-10-17T13:54:40.544Z,24.12
2022-10-17T13:56:26.470Z,24.03
2022-10-17T13:57:31.098Z,23.85
2022-10-17T13:58:45.654Z,23.69
2022-10-17T13:59:55.778Z,23.56
2022-10-17T14:00:58.402Z,23.47
2022-10-17T14:02:01.970Z,23.37
2022-10-17T14:03:04.676Z,23.27
2022-10-17T14:04:16.598Z,23.16
2022-10-17T14:05:23.888Z,23.05
2022-10-17T14:06:28.212Z,22.95
2022-10-17T14:08:09.285Z,22.84
2022-10-17T14:09:16.453Z,22.68
2022-10-17T14:10:25.792Z,22.54
2022-10-17T14:11:36.885Z,22.50
2022-10-17T14:12:43.329Z,22.47
2022-10-17T14:13:50.516Z,22.42
2022-10-17T14:15:10.973Z,22.39
2022-10-17T14:16:13.061Z,22.36
2022-10-17T14:17:25.906Z,22.33
2022-10-17T14:18:36.448Z,22.28
2022-10-17T14:19:38.875Z,22.21
2022-10-17T14:21:28.772Z,22.17
2022-10-17T14:22:21.637Z,22.19
2022-10-17T14:23:38.963Z,22.21
2022-10-17T14:24:42.194Z,22.23
2022-10-17T14:25:44.036Z,22.24
2022-10-17T14:27:01.001Z,22.24
2022-10-17T14:28:15.147Z,22.22
2022-10-17T14:29:25.118Z,22.24
2022-10-17T14:30:51.519Z,22.30
2022-10-17T14:31:50.612Z,22.43
2022-10-17T14:32:58.370Z,22.57
2022-10-17T14:34:01.762Z,22.76
2022-10-17T14:35:30.247Z,22.93
2022-10-17T14:36:40.158Z,23.10
2022-10-17T14:37:48.780Z,23.17
2022-10-17T14:38:52.237Z,23.20
2022-10-17T14:39:55.233Z,23.22
2022-10-17T14:41:30.557Z,23.18
2022-10-17T14:42:24.606Z,23.12
2022-10-17T14:43:30.396Z,23.04
2022-10-17T14:44:35.978Z,22.91
2022-10-17T14:45:39.978Z,22.78
2022-10-17T14:46:50.534Z,22.64
2022-10-17T14:47:56.910Z,22.50
2022-10-17T14:49:08.230Z,22.42
2022-10-17T14:50:12.797Z,22.32
2022-10-17T14:51:18.843Z,22.21
2022-10-17T14:52:27.075Z,22.13
2022-10-17T14:53:30.186Z,22.05
2022-10-17T14:54:35.836Z,21.95
2022-10-17T14:55:40.076Z,21.86